createdAt,value
2019-02-20T00:01:26.869Z,27.37
2019-02-20T00:03:57.536Z,31.10
2019-02-20T00:06:28.409Z,21.57
2019-02-20T00:09:00.323Z,21.40
2019-02-20T00:11:32.630Z,21.63
2019-02-20T00:14:03.386Z,26.27
2019-02-20T00:16:36.794Z,31.60
2019-02-20T00:19:07.446Z,27.10
2019-02-20T00:21:38.099Z,18.77
2019-02-20T00:24:08.926Z,23.67
2019-02-20T00:26:39.732Z,25.87
2019-02-20T00:29:10.613Z,25.97
2019-02-20T00:31:41.535Z,23.10
2019-02-20T00:34:12.433Z,25.10
2019-02-20T00:36:43.245Z,24.87
2019-02-20T00:39:14.210Z,27.37
2019-02-20T00:41:45.036Z,26.77
2019-02-20T00:44:30.489Z,21.80
2019-02-20T00:47:29.389Z,23.97
2019-02-20T00:50:00.407Z,31.77
2019-02-20T00:52:49.618Z,22.47
2019-02-20T00:55:15.595Z,21.00
2019-02-20T00:57:46.589Z,22.90
2019-02-20T01:00:17.395Z,18.93
2019-02-20T01:02:48.304Z,27.63
2019-02-20T01:05:20.668Z,27.17
2019-02-20T01:07:51.653Z,30.33
2019-02-20T01:10:22.415Z,24.70
2019-02-20T01:12:53.235Z,30.83
2019-02-20T01:15:24.018Z,28.57
2019-02-20T01:17:55.956Z,33.30
2019-02-20T01:20:26.846Z,30.73
2019-02-20T01:22:59.878Z,28.57
2019-02-20T01:25:31.460Z,30.07
2019-02-20T01:28:02.893Z,30.33
2019-02-20T01:30:33.563Z,22.23
2019-02-20T01:33:04.376Z,30.43
2019-02-20T01:35:35.004Z,31.40
2019-02-20T01:38:05.798Z,30.87
2019-02-20T01:40:36.805Z,26.00
2019-02-20T01:43:07.472Z,33.53
2019-02-20T01:45:38.253Z,27.50
2019-02-20T01:48:09.033Z,30.10
2019-02-20T02:09:01.179Z,30.17
2019-02-20T02:11:33.967Z,28.20
2019-02-20T02:14:04.803Z,29.83
2019-02-20T02:16:37.153Z,29.07
2019-02-20T02:19:07.941Z,33.10
2019-02-20T02:21:38.607Z,30.33
2019-02-20T02:24:09.318Z,36.50
2019-02-20T02:26:41.589Z,32.33
2019-02-20T02:29:12.494Z,31.93
2019-02-20T02:31:43.308Z,30.87
2019-02-20T02:34:14.088Z,30.17
2019-02-20T02:36:45.786Z,32.07
2019-02-20T02:39:16.550Z,35.13
2019-02-20T02:41:47.557Z,31.50
2019-02-20T02:44:18.337Z,36.10
2019-02-20T02:46:49.115Z,39.30
2019-02-20T02:49:19.790Z,29.27
2019-02-20T02:51:50.521Z,26.63
2019-02-20T02:54:21.273Z,37.23
2019-02-20T02:56:52.025Z,30.20
2019-02-20T02:59:22.801Z,31.97
2019-02-20T03:01:53.527Z,36.47
2019-02-20T03:04:24.283Z,36.53
2019-02-20T03:06:55.365Z,29.97
2019-02-20T03:09:29.701Z,39.60
2019-02-20T03:12:05.119Z,37.37
2019-02-20T03:14:39.440Z,38.90
2019-02-20T03:17:10.690Z,31.77
2019-02-20T03:19:41.419Z,34.73
2019-02-20T03:22:12.192Z,28.43
2019-02-20T03:24:42.978Z,31.00
2019-02-20T03:27:13.730Z,39.03
2019-02-20T03:29:44.554Z,38.83
2019-02-20T03:32:15.373Z,43.63
2019-02-20T03:34:46.307Z,35.83
2019-02-20T03:37:16.967Z,32.30
2019-02-20T03:39:47.675Z,34.33
2019-02-20T03:42:18.408Z,39.20
2019-02-20T03:44:49.126Z,42.50
2019-02-20T03:47:20.335Z,37.80
2019-02-20T03:49:51.002Z,33.97
2019-02-20T03:52:21.734Z,39.30
2019-02-20T03:54:52.415Z,39.37
2019-02-20T03:57:23.178Z,41.00
2019-02-20T03:59:53.976Z,47.10
2019-02-20T04:02:24.692Z,41.43
2019-02-20T04:04:55.401Z,40.23
2019-02-20T04:07:26.246Z,39.03
2019-02-20T04:09:57.010Z,39.33
2019-02-20T04:12:27.705Z,42.77
2019-02-20T04:14:58.510Z,37.93
2019-02-20T04:17:29.314Z,39.13
2019-02-20T04:20:00.288Z,41.63
2019-02-20T04:22:31.183Z,44.47
2019-02-20T04:25:01.963Z,42.63
2019-02-20T04:27:32.676Z,48.27
2019-02-20T04:30:03.418Z,50.60
2019-02-20T04:32:35.051Z,44.43
2019-02-20T04:35:06.103Z,38.20
2019-02-20T04:37:36.809Z,40.60
2019-02-20T04:40:07.739Z,40.13
2019-02-20T04:42:38.490Z,43.60
2019-02-20T04:45:09.291Z,42.93
2019-02-20T04:47:40.047Z,34.17
2019-02-20T04:50:10.925Z,42.67
2019-02-20T04:52:41.733Z,47.80
2019-02-20T04:55:12.962Z,48.03
2019-02-20T04:57:43.647Z,36.27
2019-02-20T05:00:14.733Z,52.40
2019-02-20T05:02:45.624Z,42.53
2019-02-20T05:05:16.474Z,43.73
2019-02-20T05:07:47.410Z,31.60
2019-02-20T05:10:18.224Z,36.83
2019-02-20T05:12:48.997Z,41.13
2019-02-20T05:15:19.696Z,49.40
2019-02-20T05:17:50.384Z,32.30
2019-02-20T05:20:21.171Z,49.50
2019-02-20T05:22:51.896Z,29.20
2019-02-20T05:25:22.543Z,34.43
2019-02-20T05:27:53.275Z,38.77
2019-02-20T05:30:24.079Z,40.17
2019-02-20T05:32:54.896Z,35.90
2019-02-20T05:35:25.683Z,37.53
2019-02-20T05:37:57.449Z,34.87
2019-02-20T05:40:28.281Z,36.83
2019-02-20T05:42:59.134Z,33.87
2019-02-20T05:45:30.899Z,38.07
2019-02-20T05:48:01.674Z,33.17
2019-02-20T05:50:32.420Z,39.07
2019-02-20T05:53:03.238Z,32.27
2019-02-20T05:55:34.150Z,35.33
2019-02-20T05:58:04.956Z,32.53
2019-02-20T06:00:35.852Z,32.33
2019-02-20T06:03:07.599Z,36.00
2019-02-20T06:05:38.326Z,31.37
2019-02-20T06:08:09.077Z,33.10
2019-02-20T06:10:39.806Z,34.00
2019-02-20T06:13:26.066Z,32.03
2019-02-20T06:15:48.867Z,30.80
2019-02-20T06:18:19.531Z,32.70
2019-02-20T06:20:50.260Z,30.30
2019-02-20T06:23:22.058Z,34.80
2019-02-20T06:25:52.875Z,35.57
2019-02-20T06:28:23.679Z,35.43
2019-02-20T06:30:54.455Z,29.00
2019-02-20T06:33:25.213Z,36.73
2019-02-20T06:35:56.015Z,41.23
2019-02-20T06:38:26.796Z,41.60
2019-02-20T06:41:00.570Z,51.80
2019-02-20T06:43:31.394Z,39.83
2019-02-20T06:46:03.680Z,30.33
2019-02-20T06:48:34.584Z,36.97
2019-02-20T06:51:05.238Z,32.50
2019-02-20T06:53:36.055Z,35.77
2019-02-20T06:56:08.849Z,30.63
2019-02-20T06:58:41.119Z,34.53
2019-02-20T07:01:11.974Z,39.43
2019-02-20T07:03:42.961Z,38.30
2019-02-20T07:06:35.479Z,39.40
2019-02-20T07:10:02.132Z,37.47
2019-02-20T07:12:51.711Z,39.50
2019-02-20T07:15:52.470Z,38.10
2019-02-20T07:18:57.998Z,41.30
2019-02-20T07:22:30.788Z,36.33
2019-02-20T07:25:32.919Z,30.07
2019-02-20T07:28:42.989Z,36.83
2019-02-20T07:31:14.131Z,38.27
2019-02-20T07:33:46.688Z,41.50
2019-02-20T07:36:17.507Z,31.93
2019-02-20T07:38:48.301Z,33.50
2019-02-20T07:41:19.065Z,36.33
2019-02-20T07:43:49.895Z,33.97
2019-02-20T07:46:21.618Z,35.93
2019-02-20T07:48:52.395Z,29.47
2019-02-20T07:51:23.096Z,32.53
2019-02-20T07:53:53.885Z,35.87
2019-02-20T07:56:24.528Z,32.93
2019-02-20T07:58:55.443Z,38.53
2019-02-20T08:01:26.063Z,34.30
2019-02-20T08:03:56.821Z,28.53
2019-02-20T08:06:27.504Z,32.33
2019-02-20T08:08:58.252Z,33.50
2019-02-20T08:11:28.879Z,33.23
2019-02-20T08:13:59.698Z,34.67
2019-02-20T08:16:30.499Z,31.33
2019-02-20T08:19:02.266Z,29.77
2019-02-20T08:21:33.027Z,33.43
2019-02-20T08:24:03.887Z,28.20
2019-02-20T08:26:34.776Z,38.50
2019-02-20T08:29:05.540Z,37.53
2019-02-20T08:31:36.413Z,33.50
2019-02-20T08:34:07.146Z,29.77
2019-02-20T08:36:37.964Z,29.57
2019-02-20T08:39:08.715Z,33.40
2019-02-20T08:41:39.462Z,29.70
2019-02-20T08:44:10.191Z,30.03
2019-02-20T08:46:40.927Z,28.97
2019-02-20T08:49:11.763Z,38.00
2019-02-20T08:51:42.470Z,28.67
2019-02-20T08:54:13.318Z,27.17
2019-02-20T08:56:44.098Z,31.33
2019-02-20T08:59:15.041Z,33.00
2019-02-20T09:01:46.040Z,33.93
2019-02-20T09:04:16.871Z,23.40
2019-02-20T09:06:47.644Z,26.10
2019-02-20T09:09:18.445Z,32.77
2019-02-20T09:11:49.198Z,27.37
2019-02-20T09:14:20.115Z,33.17
2019-02-20T09:16:50.914Z,32.10
2019-02-20T09:19:21.894Z,32.97
2019-02-20T09:21:52.613Z,30.10
2019-02-20T09:24:23.410Z,37.97
2019-02-20T09:26:54.189Z,29.67
2019-02-20T09:29:24.914Z,34.27
2019-02-20T09:31:57.291Z,34.27
2019-02-20T09:34:28.051Z,30.67
2019-02-20T09:36:58.859Z,23.57
2019-02-20T09:39:37.355Z,34.23
2019-02-20T09:42:13.107Z,28.73
2019-02-20T09:44:48.656Z,33.43
2019-02-20T09:47:20.246Z,26.10
2019-02-20T09:49:51.085Z,35.10
2019-02-20T09:52:21.896Z,26.60
2019-02-20T09:54:52.674Z,34.93
2019-02-20T09:57:23.574Z,27.70
2019-02-20T09:59:54.372Z,29.37
2019-02-20T10:02:25.255Z,29.50
2019-02-20T10:04:56.075Z,31.13
2019-02-20T10:07:26.902Z,31.17
2019-02-20T10:09:58.618Z,29.93
2019-02-20T10:12:29.408Z,35.57
2019-02-20T10:15:01.147Z,28.53
2019-02-20T10:17:32.042Z,32.17
2019-02-20T10:20:03.778Z,29.07
2019-02-20T10:22:34.562Z,22.30
2019-02-20T10:25:07.050Z,28.57
2019-02-20T10:27:37.899Z,25.07
2019-02-20T10:30:13.166Z,29.10
2019-02-20T10:32:44.247Z,30.60
2019-02-20T10:35:16.648Z,17.77
2019-02-20T10:37:47.450Z,25.23
2019-02-20T10:40:18.238Z,25.00
2019-02-20T10:42:49.026Z,28.80
2019-02-20T10:45:19.746Z,21.67
2019-02-20T10:47:50.505Z,24.33
2019-02-20T10:50:21.307Z,24.07
2019-02-20T10:52:52.798Z,24.20
2019-02-20T10:55:24.073Z,22.87
2019-02-20T10:57:54.934Z,22.70
2019-02-20T11:00:28.683Z,21.80
2019-02-20T11:02:59.555Z,29.53
2019-02-20T11:05:30.374Z,28.67
2019-02-20T11:08:01.143Z,19.50
2019-02-20T11:10:32.000Z,22.47
2019-02-20T11:13:04.311Z,21.73
2019-02-20T11:15:35.076Z,22.67
2019-02-20T11:18:05.747Z,16.43
2019-02-20T11:20:38.886Z,20.23
2019-02-20T11:23:09.631Z,21.90
2019-02-20T11:25:40.380Z,20.90
2019-02-20T11:28:11.206Z,17.20
2019-02-20T11:30:41.971Z,17.87
2019-02-20T11:33:12.715Z,18.87
2019-02-20T11:35:43.483Z,16.17
2019-02-20T11:38:14.272Z,22.37
2019-02-20T11:40:45.118Z,20.57
2019-02-20T11:43:15.886Z,20.40
2019-02-20T11:45:46.714Z,18.97
2019-02-20T11:48:17.515Z,24.33
2019-02-20T11:50:49.317Z,21.97
2019-02-20T11:53:20.085Z,22.83
2019-02-20T11:55:51.073Z,21.40
2019-02-20T11:58:23.022Z,19.57
2019-02-20T12:00:53.806Z,22.90
2019-02-20T12:03:24.633Z,22.70
2019-02-20T12:05:55.414Z,19.33
2019-02-20T12:08:26.283Z,21.47
2019-02-20T12:10:57.057Z,26.27
2019-02-20T12:13:27.838Z,22.23
2019-02-20T12:16:00.143Z,20.20
2019-02-20T12:18:30.885Z,21.20
2019-02-20T12:21:01.545Z,21.93
2019-02-20T12:23:36.753Z,17.90
2019-02-20T12:26:06.267Z,20.23
2019-02-20T12:28:37.050Z,23.37
2019-02-20T12:31:07.738Z,21.30
2019-02-20T12:33:38.534Z,19.07
2019-02-20T12:36:09.240Z,21.77
2019-02-20T12:38:40.207Z,15.23
2019-02-20T12:41:11.040Z,21.00
2019-02-20T12:43:41.962Z,18.50
2019-02-20T12:46:12.627Z,21.53
2019-02-20T12:48:43.347Z,19.87
2019-02-20T12:51:15.115Z,25.97
2019-02-20T12:53:45.938Z,20.10
2019-02-20T12:56:16.633Z,17.70
2019-02-20T12:58:47.365Z,15.03
2019-02-20T13:01:18.861Z,16.37
2019-02-20T13:03:49.655Z,20.23
2019-02-20T13:06:20.410Z,20.70
2019-02-20T13:08:51.127Z,20.40
2019-02-20T13:11:21.858Z,14.13
2019-02-20T13:13:52.601Z,15.50
2019-02-20T13:16:23.925Z,14.60
2019-02-20T13:18:54.748Z,18.00
2019-02-20T13:21:26.930Z,22.23
2019-02-20T13:23:58.808Z,18.83
2019-02-20T13:26:29.523Z,20.23
2019-02-20T13:29:00.195Z,14.90
2019-02-20T13:31:30.943Z,17.10
2019-02-20T13:34:02.196Z,20.40
2019-02-20T13:36:33.157Z,12.90
2019-02-20T13:39:06.186Z,17.20
2019-02-20T13:41:38.605Z,16.57
2019-02-20T13:44:10.370Z,16.20
2019-02-20T13:46:41.165Z,12.77
2019-02-20T13:49:13.417Z,17.53
2019-02-20T13:51:44.096Z,13.37
2019-02-20T13:54:14.886Z,15.03
2019-02-20T13:56:45.615Z,19.50
2019-02-20T13:59:16.314Z,14.37
2019-02-20T14:01:47.082Z,13.87
2019-02-20T14:04:19.552Z,20.70
2019-02-20T14:06:52.045Z,23.00
2019-02-20T14:09:24.211Z,16.53
2019-02-20T14:11:56.706Z,17.80
2019-02-20T14:14:27.486Z,13.27
2019-02-20T14:16:58.410Z,17.17
2019-02-20T14:19:31.105Z,15.13
2019-02-20T14:22:03.454Z,15.70
2019-02-20T14:24:34.318Z,14.73
2019-02-20T14:27:10.747Z,15.07
2019-02-20T14:29:38.510Z,10.20
2019-02-20T14:32:09.255Z,13.83
2019-02-20T14:34:40.111Z,13.73
2019-02-20T14:37:10.844Z,15.40
2019-02-20T14:39:41.609Z,15.67
2019-02-20T14:42:12.293Z,13.30
2019-02-20T14:44:43.038Z,14.17
2019-02-20T14:47:14.091Z,11.80
2019-02-20T14:49:44.979Z,15.40
2019-02-20T14:52:15.972Z,14.53
2019-02-20T14:54:46.784Z,16.40
2019-02-20T14:57:19.766Z,19.07
2019-02-20T14:59:50.318Z,16.47
2019-02-20T15:02:21.037Z,14.87
2019-02-20T15:04:52.618Z,16.40
2019-02-20T15:07:24.300Z,14.63
2019-02-20T15:09:55.324Z,15.93
2019-02-20T15:12:26.383Z,18.73
2019-02-20T15:14:57.194Z,14.63
2019-02-20T15:17:28.514Z,10.60
2019-02-20T15:19:59.436Z,14.47
2019-02-20T15:22:30.105Z,14.57
2019-02-20T15:25:01.004Z,16.70
2019-02-20T15:27:35.191Z,15.20
2019-02-20T15:30:07.755Z,13.70
2019-02-20T15:32:38.743Z,10.83
2019-02-20T15:35:09.934Z,14.97
2019-02-20T15:37:41.080Z,11.93
2019-02-20T15:40:12.358Z,11.73
2019-02-20T15:42:43.263Z,11.37
2019-02-20T15:45:14.069Z,12.93
2019-02-20T15:47:44.898Z,12.77
2019-02-20T15:50:17.818Z,12.67
2019-02-20T15:52:48.622Z,14.70
2019-02-20T15:55:19.652Z,14.50
2019-02-20T15:57:50.517Z,18.30
2019-02-20T16:00:22.894Z,11.70
2019-02-20T16:02:55.235Z,15.43
2019-02-20T16:05:26.074Z,16.00
2019-02-20T16:07:57.078Z,14.73
2019-02-20T16:10:27.847Z,12.90
2019-02-20T16:12:58.640Z,15.80
2019-02-20T16:15:29.467Z,15.77
2019-02-20T16:18:00.493Z,13.90
2019-02-20T16:20:31.411Z,16.97
2019-02-20T16:23:03.492Z,16.17
2019-02-20T16:25:34.349Z,12.67
2019-02-20T16:28:05.193Z,14.30
2019-02-20T16:30:37.448Z,18.27
2019-02-20T16:33:09.208Z,13.43
2019-02-20T16:35:40.103Z,12.67
2019-02-20T16:38:10.999Z,17.30
2019-02-20T16:40:41.845Z,14.23
2019-02-20T16:43:12.702Z,15.80
2019-02-20T16:45:43.589Z,13.80
2019-02-20T16:48:14.397Z,16.30
2019-02-20T16:50:45.755Z,19.90
2019-02-20T16:53:16.628Z,17.43
2019-02-20T16:55:49.224Z,23.60
2019-02-20T16:58:22.466Z,15.00
2019-02-20T17:00:55.613Z,22.60
2019-02-20T17:03:26.749Z,20.43
2019-02-20T17:05:57.374Z,25.97
2019-02-20T17:08:28.122Z,17.53
2019-02-20T17:10:59.110Z,14.30
2019-02-20T17:13:29.909Z,15.67
2019-02-20T17:16:01.705Z,23.20
2019-02-20T17:18:32.496Z,23.00
2019-02-20T17:21:03.238Z,22.73
2019-02-20T17:23:34.006Z,18.00
2019-02-20T17:26:04.945Z,22.93
2019-02-20T17:28:35.741Z,21.37
2019-02-20T17:31:06.759Z,25.57
2019-02-20T17:33:37.715Z,21.60
2019-02-20T17:36:08.483Z,50.10
2019-02-20T17:38:40.866Z,40.23
2019-02-20T17:41:11.768Z,34.13
2019-02-20T17:43:42.738Z,26.40
2019-02-20T17:46:13.543Z,23.40
2019-02-20T17:48:44.329Z,22.33
2019-02-20T17:51:15.534Z,28.13
2019-02-20T17:53:46.427Z,23.60
2019-02-20T17:56:17.307Z,20.07
2019-02-20T17:58:48.263Z,18.70
2019-02-20T18:01:19.026Z,19.33
2019-02-20T18:03:49.735Z,21.77
2019-02-20T18:06:20.596Z,23.03
2019-02-20T18:08:51.367Z,25.37
2019-02-20T18:11:22.079Z,20.67
2019-02-20T18:13:52.901Z,24.07
2019-02-20T18:16:23.655Z,24.30
2019-02-20T18:18:54.741Z,20.67
2019-02-20T18:21:25.415Z,20.80
2019-02-20T18:23:56.580Z,23.47
2019-02-20T18:26:27.258Z,24.03
2019-02-20T18:28:59.550Z,21.23
2019-02-20T18:31:30.342Z,20.67
2019-02-20T18:34:01.289Z,26.23
2019-02-20T18:36:32.058Z,23.73
2019-02-20T18:39:05.328Z,25.97
2019-02-20T18:41:37.975Z,21.70
2019-02-20T18:44:16.665Z,21.93
2019-02-20T18:46:48.693Z,22.80
2019-02-20T18:49:21.157Z,22.90
2019-02-20T18:51:53.203Z,25.20
2019-02-20T18:54:24.138Z,29.40
2019-02-20T18:56:55.129Z,34.90
2019-02-20T18:59:26.435Z,45.03
2019-02-20T19:01:57.435Z,40.00
2019-02-20T19:04:28.362Z,29.80
2019-02-20T19:06:59.270Z,31.57
2019-02-20T19:09:30.897Z,30.83
2019-02-20T19:12:29.260Z,27.67
2019-02-20T19:15:17.035Z,25.27
2019-02-20T19:18:24.887Z,24.30
2019-02-20T19:21:10.967Z,23.57
2019-02-20T19:24:31.080Z,28.00
2019-02-20T19:27:32.898Z,27.77
2019-02-20T19:30:44.975Z,23.50
2019-02-20T19:33:47.124Z,27.47
2019-02-20T19:36:53.747Z,25.53
2019-02-20T19:40:20.743Z,29.40
2019-02-20T19:43:35.588Z,30.70
2019-02-20T19:46:52.092Z,32.77
2019-02-20T19:50:05.219Z,28.80
2019-02-20T19:53:09.213Z,34.00
2019-02-20T19:56:13.204Z,28.60
2019-02-20T19:59:09.298Z,34.50
2019-02-20T20:02:27.898Z,30.20
2019-02-20T20:05:38.795Z,31.70
2019-02-20T20:08:59.925Z,33.17
2019-02-20T20:12:12.397Z,29.97
2019-02-20T20:15:38.066Z,38.07
2019-02-20T20:18:53.020Z,30.87
2019-02-20T20:21:39.251Z,34.80
2019-02-20T20:24:51.079Z,35.80
2019-02-20T20:27:43.555Z,33.40
2019-02-20T20:31:01.690Z,40.67
2019-02-20T20:34:13.886Z,38.27
2019-02-20T20:37:40.565Z,29.07
2019-02-20T20:40:49.534Z,33.47
2019-02-20T20:43:37.603Z,35.93
2019-02-20T20:46:39.317Z,34.00
2019-02-20T20:49:37.374Z,44.90
2019-02-20T20:52:51.761Z,31.93
2019-02-20T20:56:08.295Z,35.13
2019-02-20T20:59:03.905Z,34.33
2019-02-20T21:01:51.962Z,35.47
2019-02-20T21:05:00.846Z,31.33
2019-02-20T21:08:07.925Z,32.23
2019-02-20T21:11:34.351Z,31.87
2019-02-20T21:14:48.658Z,29.47
2019-02-20T21:17:58.818Z,33.13
2019-02-20T21:21:22.666Z,30.83
2019-02-20T21:24:37.181Z,28.80
2019-02-20T21:27:57.854Z,32.57
2019-02-20T21:31:20.583Z,34.70
2019-02-20T21:34:22.880Z,30.30
2019-02-20T21:37:17.447Z,35.10
2019-02-20T21:40:03.165Z,36.23
2019-02-20T21:42:47.590Z,32.27
2019-02-20T21:46:11.181Z,33.67
2019-02-20T21:49:00.213Z,29.90
2019-02-20T21:51:56.097Z,33.93
2019-02-20T21:55:22.877Z,27.20
2019-02-20T21:58:15.006Z,31.40
2019-02-20T22:01:14.208Z,31.50
2019-02-20T22:04:24.839Z,30.33
2019-02-20T22:07:45.291Z,26.47
2019-02-20T22:10:38.014Z,30.33
2019-02-20T22:14:09.350Z,25.87
2019-02-20T22:16:53.415Z,28.40
2019-02-20T22:20:22.957Z,27.23
2019-02-20T22:23:13.894Z,27.43
2019-02-20T22:26:13.469Z,28.27
2019-02-20T22:28:59.143Z,35.27
2019-02-20T22:32:18.606Z,23.90
2019-02-20T22:35:22.929Z,32.17
2019-02-20T22:38:25.770Z,23.93
2019-02-20T22:41:10.934Z,37.03
2019-02-20T22:44:29.947Z,29.57
2019-02-20T22:47:25.594Z,34.83
2019-02-20T22:50:39.177Z,25.23
2019-02-20T22:53:21.841Z,33.90
2019-02-20T22:56:39.490Z,29.63
2019-02-20T23:00:01.914Z,35.10
2019-02-20T23:02:52.187Z,29.20
2019-02-20T23:06:05.396Z,33.67
2019-02-20T23:08:59.442Z,39.87
2019-02-20T23:12:01.446Z,33.73
2019-02-20T23:14:56.459Z,35.30
2019-02-20T23:17:27.422Z,37.83
2019-02-20T23:19:58.255Z,37.07
2019-02-20T23:22:28.897Z,36.93
2019-02-20T23:24:59.609Z,41.17
2019-02-20T23:27:30.278Z,48.47
2019-02-20T23:30:01.033Z,36.50
2019-02-20T23:32:31.838Z,37.57
2019-02-20T23:35:02.487Z,35.70
2019-02-20T23:37:33.953Z,38.40
2019-02-20T23:40:04.988Z,35.77
2019-02-20T23:42:35.722Z,40.23
2019-02-20T23:45:06.490Z,42.33
2019-02-20T23:47:37.399Z,42.83
2019-02-20T23:50:08.242Z,40.07
2019-02-20T23:52:38.997Z,40.87
2019-02-20T23:55:11.279Z,38.47
2019-02-20T23:57:44.454Z,44.60
